createdAt,value
2018-04-20T00:02:57.065Z,13.20
2018-04-20T00:05:27.701Z,13.10
2018-04-20T00:07:57.541Z,13.10
2018-04-20T00:10:26.346Z,13.10
2018-04-20T00:12:58.819Z,13.10
2018-04-20T00:15:32.555Z,13.00
2018-04-20T00:20:36.431Z,13.10
2018-04-20T00:23:15.411Z,13.10
2018-04-20T00:25:50.365Z,13.10
2018-04-20T00:28:21.874Z,13.10
2018-04-20T00:30:56.088Z,13.10
2018-04-20T00:33:25.391Z,13.10
2018-04-20T00:35:55.669Z,12.90
2018-04-20T00:38:25.545Z,12.80
2018-04-20T00:41:02.108Z,12.70
2018-04-20T00:43:31.748Z,12.70
2018-04-20T00:48:39.236Z,12.50
2018-04-20T00:51:08.787Z,12.30
2018-04-20T00:54:44.568Z,12.30
2018-04-20T00:57:19.551Z,12.20
2018-04-20T00:59:48.410Z,12.10
2018-04-20T01:02:24.102Z,12.10
2018-04-20T01:07:32.602Z,12.10
2018-04-20T01:10:02.100Z,12.20
2018-04-20T01:12:30.761Z,12.20
2018-04-20T01:14:59.162Z,12.10
2018-04-20T01:17:38.957Z,12.10
2018-04-20T01:20:12.308Z,12.20
2018-04-20T01:22:43.346Z,12.10
2018-04-20T01:25:21.350Z,12.00
2018-04-20T01:27:53.165Z,12.10
2018-04-20T01:30:28.433Z,12.10
2018-04-20T01:33:09.803Z,12.00
2018-04-20T01:35:44.411Z,12.00
2018-04-20T01:40:53.104Z,12.00
2018-04-20T01:43:29.592Z,11.90
2018-04-20T01:46:08.153Z,11.80
2018-04-20T01:48:37.933Z,11.70
2018-04-20T01:51:11.889Z,11.70
2018-04-20T01:53:41.567Z,11.60
2018-04-20T01:56:16.569Z,11.50
2018-04-20T02:01:31.296Z,11.40
2018-04-20T02:04:03.667Z,11.40
2018-04-20T02:06:41.147Z,11.30
2018-04-20T02:09:12.706Z,11.30
2018-04-20T02:11:41.792Z,11.30
2018-04-20T02:14:10.783Z,11.30
2018-04-20T02:16:39.965Z,11.20
2018-04-20T02:19:09.562Z,11.10
2018-04-20T02:21:38.496Z,11.10
2018-04-20T02:24:12.809Z,11.00
2018-04-20T02:26:42.426Z,11.10
2018-04-20T02:29:13.082Z,11.10
2018-04-20T02:31:46.473Z,11.10
2018-04-20T02:34:22.527Z,11.10
2018-04-20T02:36:52.740Z,11.10
2018-04-20T02:39:27.451Z,11.10
2018-04-20T02:41:56.418Z,11.20
2018-04-20T02:44:29.984Z,11.10
2018-04-20T02:47:01.246Z,11.00
2018-04-20T02:49:36.990Z,11.00
2018-04-20T02:52:07.831Z,10.90
2018-04-20T02:54:39.314Z,10.90
2018-04-20T02:57:09.474Z,10.90
2018-04-20T02:59:45.819Z,10.80
2018-04-20T03:02:15.143Z,10.70
2018-04-20T03:04:52.903Z,10.60
2018-04-20T03:07:31.508Z,10.50
2018-04-20T03:10:09.053Z,10.40
2018-04-20T03:12:42.123Z,10.50
2018-04-20T03:15:21.738Z,10.40
2018-04-20T03:17:55.479Z,10.40
2018-04-20T03:20:24.346Z,10.40
2018-04-20T03:22:53.945Z,10.50
2018-04-20T03:25:26.325Z,10.50
2018-04-20T03:27:58.810Z,10.60
2018-04-20T03:30:29.658Z,10.50
2018-04-20T03:32:58.753Z,10.50
2018-04-20T03:35:28.550Z,10.50
2018-04-20T03:37:57.216Z,10.50
2018-04-20T03:40:26.211Z,10.50
2018-04-20T03:42:56.371Z,10.50
2018-04-20T03:45:26.919Z,10.60
2018-04-20T03:47:58.982Z,10.50
2018-04-20T03:50:41.582Z,10.50
2018-04-20T03:53:15.556Z,10.40
2018-04-20T03:58:24.507Z,10.30
2018-04-20T04:00:54.713Z,10.40
2018-04-20T04:03:31.082Z,10.40
2018-04-20T04:06:04.847Z,10.30
2018-04-20T04:08:34.977Z,10.40
2018-04-20T04:11:06.587Z,10.30
2018-04-20T04:13:42.287Z,10.20
2018-04-20T04:16:31.450Z,10.20
2018-04-20T04:20:16.911Z,10.20
2018-04-20T04:25:04.815Z,10.20
2018-04-20T04:27:45.717Z,10.20
2018-04-20T04:32:59.885Z,9.90
2018-04-20T04:35:31.197Z,9.80
2018-04-20T04:38:03.161Z,9.70
2018-04-20T04:40:31.922Z,9.70
2018-04-20T04:43:02.478Z,9.90
2018-04-20T04:45:36.482Z,9.90
2018-04-20T04:48:05.477Z,9.90
2018-04-20T04:50:44.032Z,9.90
2018-04-20T04:53:20.500Z,10.00
2018-04-20T04:55:50.416Z,10.00
2018-04-20T04:58:25.095Z,10.10
2018-04-20T05:03:41.563Z,10.10
2018-04-20T05:06:12.603Z,10.00
2018-04-20T05:08:42.626Z,10.00
2018-04-20T05:11:15.528Z,10.00
2018-04-20T05:13:48.155Z,9.90
2018-04-20T05:16:19.742Z,10.00
2018-04-20T05:18:59.141Z,10.10
2018-04-20T05:21:31.640Z,10.20
2018-04-20T05:24:02.968Z,10.10
2018-04-20T05:26:40.946Z,10.10
2018-04-20T05:29:19.239Z,10.20
2018-04-20T05:31:47.859Z,10.30
2018-04-20T05:34:21.639Z,10.30
2018-04-20T05:36:50.415Z,10.40
2018-04-20T05:39:28.007Z,10.40
2018-04-20T05:42:01.081Z,10.50
2018-04-20T05:44:39.582Z,10.50
2018-04-20T05:47:15.894Z,10.60
2018-04-20T05:55:18.443Z,10.70
2018-04-20T05:57:50.805Z,10.90
2018-04-20T06:00:25.010Z,11.00
2018-04-20T06:02:57.022Z,11.20
2018-04-20T06:05:27.286Z,11.30
2018-04-20T06:07:57.917Z,11.20
2018-04-20T06:10:32.430Z,11.10
2018-04-20T06:13:00.989Z,11.20
2018-04-20T06:15:37.917Z,11.10
2018-04-20T06:18:11.036Z,11.20
2018-04-20T06:20:57.747Z,11.40
2018-04-20T06:23:27.475Z,11.70
2018-04-20T06:26:01.610Z,11.70
2018-04-20T06:28:34.567Z,11.90
2018-04-20T06:36:25.462Z,12.40
2018-04-20T06:41:37.885Z,12.60
2018-04-20T06:49:42.402Z,12.60
2018-04-20T06:52:13.166Z,12.70
2018-04-20T06:54:44.358Z,12.90
2018-04-20T06:57:18.716Z,13.00
2018-04-20T06:59:52.404Z,13.20
2018-04-20T07:02:24.030Z,13.50
2018-04-20T07:04:58.150Z,14.00
2018-04-20T07:07:41.766Z,15.50
2018-04-20T07:10:14.978Z,17.10
2018-04-20T07:12:50.908Z,18.90
2018-04-20T07:17:55.436Z,20.40
2018-04-20T07:23:01.333Z,21.10
2018-04-20T07:25:44.722Z,22.10
2018-04-20T07:28:15.476Z,22.10
2018-04-20T07:30:46.455Z,22.70
2018-04-20T07:33:16.714Z,22.70
2018-04-20T07:35:45.339Z,23.10
2018-04-20T07:38:14.524Z,23.60
2018-04-20T07:40:53.424Z,21.80
2018-04-20T07:43:22.884Z,22.70
2018-04-20T07:45:55.881Z,23.60
2018-04-20T07:48:24.163Z,24.00
2018-04-20T07:50:54.940Z,24.60
2018-04-20T07:53:25.937Z,25.20
2018-04-20T07:55:55.366Z,25.40
2018-04-20T07:58:28.376Z,23.90
2018-04-20T08:00:59.635Z,25.10
2018-04-20T08:03:37.714Z,25.20
2018-04-20T08:06:06.919Z,25.20
2018-04-20T08:08:41.870Z,26.00
2018-04-20T08:11:11.479Z,25.90
2018-04-20T08:13:44.468Z,25.30
2018-04-20T08:16:14.947Z,25.30
2018-04-20T08:18:49.533Z,25.10
2018-04-20T08:21:18.737Z,25.70
2018-04-20T08:23:52.337Z,26.10
2018-04-20T08:29:00.673Z,26.30
2018-04-20T08:34:10.339Z,26.50
2018-04-20T08:36:40.394Z,26.50
2018-04-20T08:39:25.242Z,26.20
2018-04-20T08:42:00.911Z,27.00
2018-04-20T08:47:08.824Z,28.60
2018-04-20T08:49:42.293Z,28.50
2018-04-20T08:52:13.302Z,27.80
2018-04-20T08:54:45.626Z,28.60
2018-04-20T08:57:15.633Z,28.60
2018-04-20T09:05:03.362Z,27.70
2018-04-20T09:07:41.078Z,29.00
2018-04-20T09:10:15.546Z,28.40
2018-04-20T09:12:51.897Z,28.90
2018-04-20T09:15:28.898Z,28.40
2018-04-20T09:18:01.782Z,28.10
2018-04-20T09:20:41.142Z,28.10
2018-04-20T09:23:13.650Z,28.40
2018-04-20T09:25:44.078Z,27.50
2018-04-20T09:28:15.768Z,27.50
2018-04-20T09:30:45.134Z,29.10
2018-04-20T09:33:20.622Z,29.70
2018-04-20T09:35:56.601Z,28.10
2018-04-20T09:38:29.747Z,28.00
2018-04-20T09:41:04.734Z,26.90
2018-04-20T09:43:33.840Z,26.20
2018-04-20T09:46:07.661Z,25.10
2018-04-20T09:48:38.732Z,25.00
2018-04-20T09:51:17.458Z,24.80
2018-04-20T09:53:55.090Z,24.80
2018-04-20T09:59:11.918Z,25.00
2018-04-20T10:01:52.386Z,24.90
2018-04-20T10:04:30.047Z,24.80
2018-04-20T10:07:06.443Z,25.00
2018-04-20T10:09:40.426Z,25.10
2018-04-20T10:12:13.942Z,25.40
2018-04-20T10:14:52.769Z,24.90
2018-04-20T10:17:31.439Z,24.80
2018-04-20T10:20:13.307Z,24.80
2018-04-20T10:22:51.536Z,24.60
2018-04-20T10:25:38.147Z,24.80
2018-04-20T10:28:16.925Z,25.30
2018-04-20T10:30:53.527Z,25.40
2018-04-20T10:33:33.696Z,25.40
2018-04-20T10:36:02.398Z,25.20
2018-04-20T10:38:39.670Z,24.90
2018-04-20T10:41:13.590Z,24.80
2018-04-20T10:43:44.384Z,25.50
2018-04-20T10:46:21.741Z,25.40
2018-04-20T10:48:50.601Z,25.30
2018-04-20T10:51:27.550Z,25.10
2018-04-20T10:54:01.976Z,25.10
2018-04-20T10:56:34.122Z,25.10
2018-04-20T10:59:10.968Z,25.30
2018-04-20T11:01:46.407Z,25.20
2018-04-20T11:04:20.339Z,25.20
2018-04-20T11:06:49.889Z,25.20
2018-04-20T11:09:25.283Z,25.10
2018-04-20T11:12:01.601Z,25.20
2018-04-20T11:14:32.213Z,25.20
2018-04-20T11:17:02.126Z,25.20
2018-04-20T11:19:36.458Z,25.40
2018-04-20T11:22:07.003Z,25.50
2018-04-20T11:24:39.448Z,25.60
2018-04-20T11:27:13.046Z,25.40
2018-04-20T11:29:44.050Z,25.40
2018-04-20T11:32:18.678Z,25.10
2018-04-20T11:34:49.379Z,25.40
2018-04-20T11:37:19.779Z,26.10
2018-04-20T11:39:56.851Z,26.10
2018-04-20T11:42:32.287Z,26.00
2018-04-20T11:47:40.809Z,25.80
2018-04-20T11:50:20.846Z,25.90
2018-04-20T11:52:55.114Z,26.20
2018-04-20T11:55:30.171Z,26.30
2018-04-20T11:58:04.355Z,26.50
2018-04-20T12:00:38.963Z,26.50
2018-04-20T12:03:07.959Z,26.40
2018-04-20T12:05:36.981Z,26.40
2018-04-20T12:08:09.829Z,26.40
2018-04-20T12:10:39.442Z,26.10
2018-04-20T12:15:55.601Z,26.10
2018-04-20T12:18:25.249Z,26.00
2018-04-20T12:20:54.465Z,26.00
2018-04-20T12:26:06.598Z,26.30
2018-04-20T12:28:42.531Z,26.40
2018-04-20T12:33:49.456Z,26.30
2018-04-20T12:36:19.447Z,26.30
2018-04-20T12:38:51.751Z,26.60
2018-04-20T12:41:25.176Z,26.50
2018-04-20T12:44:09.675Z,26.50
2018-04-20T12:46:51.927Z,26.90
2018-04-20T12:49:21.729Z,26.70
2018-04-20T12:51:55.681Z,27.00
2018-04-20T12:54:28.745Z,27.40
2018-04-20T12:57:02.616Z,27.10
2018-04-20T12:59:37.385Z,27.00
2018-04-20T13:02:09.515Z,27.20
2018-04-20T13:04:38.892Z,27.30
2018-04-20T13:07:15.134Z,27.40
2018-04-20T13:09:52.816Z,27.60
2018-04-20T13:15:03.189Z,27.20
2018-04-20T13:17:37.291Z,27.20
2018-04-20T13:20:10.209Z,27.40
2018-04-20T13:22:46.555Z,27.60
2018-04-20T13:25:21.268Z,27.40
2018-04-20T13:27:54.386Z,27.30
2018-04-20T13:30:24.462Z,27.50
2018-04-20T13:33:03.821Z,27.70
2018-04-20T13:38:13.911Z,27.60
2018-04-20T13:40:51.738Z,27.60
2018-04-20T13:43:20.478Z,27.50
2018-04-20T13:45:52.579Z,27.20
2018-04-20T13:48:31.819Z,27.30
2018-04-20T13:51:03.404Z,27.40
2018-04-20T13:53:41.219Z,27.70
2018-04-20T13:56:09.839Z,27.70
2018-04-20T13:58:44.873Z,27.90
2018-04-20T14:01:21.385Z,27.90
2018-04-20T14:03:59.606Z,27.80
2018-04-20T14:06:34.648Z,27.80
2018-04-20T14:11:38.760Z,27.10
2018-04-20T14:14:15.510Z,27.00
2018-04-20T14:16:50.570Z,27.30
2018-04-20T14:24:42.259Z,27.90
2018-04-20T14:27:20.348Z,27.80
2018-04-20T14:29:56.713Z,27.70
2018-04-20T14:32:27.558Z,27.50
2018-04-20T14:35:02.851Z,27.60
2018-04-20T14:40:09.591Z,27.70
2018-04-20T14:42:50.023Z,27.60
2018-04-20T14:48:07.407Z,27.40
2018-04-20T14:50:48.371Z,27.70
2018-04-20T14:56:03.587Z,27.70
2018-04-20T14:58:35.849Z,27.80
2018-04-20T15:01:13.738Z,27.90
2018-04-20T15:03:49.267Z,27.50
2018-04-20T15:06:21.052Z,27.50
2018-04-20T15:09:08.420Z,27.40
2018-04-20T15:11:39.149Z,27.40
2018-04-20T15:14:15.082Z,27.50
2018-04-20T15:16:49.158Z,27.50
2018-04-20T15:19:23.285Z,27.30
2018-04-20T15:22:03.353Z,27.40
2018-04-20T15:24:36.793Z,27.40
2018-04-20T15:27:09.849Z,27.40
2018-04-20T15:29:45.075Z,27.30
2018-04-20T15:32:20.776Z,27.20
2018-04-20T15:34:51.606Z,27.20
2018-04-20T15:37:28.525Z,27.20
2018-04-20T15:39:58.512Z,27.10
2018-04-20T15:45:12.319Z,27.00
2018-04-20T15:47:45.671Z,27.10
2018-04-20T15:50:18.771Z,27.20
2018-04-20T15:52:47.982Z,27.10
2018-04-20T15:55:23.219Z,26.80
2018-04-20T15:57:53.133Z,26.80
2018-04-20T16:00:31.445Z,26.70
2018-04-20T16:03:01.061Z,26.80
2018-04-20T16:05:38.772Z,26.80
2018-04-20T16:08:13.280Z,26.60
2018-04-20T16:16:01.976Z,26.70
2018-04-20T16:18:40.903Z,26.70
2018-04-20T16:21:21.448Z,26.60
2018-04-20T16:23:52.646Z,26.50
2018-04-20T16:26:26.271Z,26.60
2018-04-20T16:29:00.999Z,26.40
2018-04-20T16:34:09.028Z,26.40
2018-04-20T16:36:47.418Z,26.40
2018-04-20T16:39:26.857Z,26.30
2018-04-20T16:47:28.272Z,26.20
2018-04-20T16:50:07.077Z,26.10
2018-04-20T16:52:46.591Z,26.00
2018-04-20T16:57:54.778Z,25.80
2018-04-20T17:03:19.433Z,25.70
2018-04-20T17:08:46.251Z,25.60
2018-04-20T17:11:19.142Z,25.50
2018-04-20T17:13:53.412Z,25.50
2018-04-20T17:19:09.968Z,25.30
2018-04-20T17:21:39.835Z,25.20
2018-04-20T17:24:18.069Z,25.20
2018-04-20T17:26:52.453Z,25.20
2018-04-20T17:32:00.139Z,24.90
2018-04-20T17:34:31.556Z,24.90
2018-04-20T17:37:03.347Z,24.80
2018-04-20T17:39:41.638Z,24.70
2018-04-20T17:42:26.972Z,24.70
2018-04-20T17:45:04.419Z,24.60
2018-04-20T17:47:41.653Z,24.60
2018-04-20T17:52:49.870Z,24.40
2018-04-20T17:55:25.927Z,24.40
2018-04-20T17:57:59.385Z,24.40
2018-04-20T18:03:22.240Z,24.20
2018-04-20T18:05:54.920Z,24.10
2018-04-20T18:08:28.683Z,24.00
2018-04-20T18:13:34.914Z,23.80
2018-04-20T18:16:10.695Z,23.70
2018-04-20T18:18:41.008Z,23.60
2018-04-20T18:21:11.593Z,23.50
2018-04-20T18:23:44.980Z,23.50
2018-04-20T18:26:21.717Z,23.60
2018-04-20T18:28:51.091Z,23.70
2018-04-20T18:31:26.218Z,23.60
2018-04-20T18:33:56.254Z,23.50
2018-04-20T18:36:31.374Z,23.50
2018-04-20T18:39:04.027Z,23.40
2018-04-20T18:41:38.350Z,23.20
2018-04-20T18:44:18.304Z,23.10
2018-04-20T18:46:51.133Z,23.00
2018-04-20T18:49:20.484Z,22.90
2018-04-20T18:54:34.585Z,22.60
2018-04-20T18:57:08.266Z,22.60
2018-04-20T18:59:43.833Z,22.40
2018-04-20T19:02:17.876Z,22.20
2018-04-20T19:05:02.339Z,22.10
2018-04-20T19:10:04.905Z,21.80
2018-04-20T19:12:33.966Z,21.70
2018-04-20T19:15:06.131Z,21.50
2018-04-20T19:17:40.823Z,21.40
2018-04-20T19:20:12.635Z,21.40
2018-04-20T19:22:41.775Z,21.40
2018-04-20T19:25:20.084Z,21.40
2018-04-20T19:27:55.581Z,21.30
2018-04-20T19:30:28.009Z,21.10
2018-04-20T19:33:03.458Z,21.00
2018-04-20T19:35:33.531Z,20.90
2018-04-20T19:38:06.135Z,20.70
2018-04-20T19:40:37.621Z,20.70
2018-04-20T19:43:07.477Z,20.60
2018-04-20T19:45:38.957Z,20.60
2018-04-20T19:48:19.276Z,20.60
2018-04-20T19:50:57.661Z,20.50
2018-04-20T19:53:44.223Z,20.50
2018-04-20T19:56:15.611Z,20.40
2018-04-20T19:58:53.809Z,20.30
2018-04-20T20:01:24.361Z,20.20
2018-04-20T20:03:57.101Z,19.90
2018-04-20T20:11:47.925Z,19.70
2018-04-20T20:14:17.877Z,19.60
2018-04-20T20:16:49.461Z,19.60
2018-04-20T20:19:25.265Z,19.50
2018-04-20T20:21:58.173Z,19.50
2018-04-20T20:24:30.957Z,19.40
2018-04-20T20:27:05.852Z,19.30
2018-04-20T20:29:35.290Z,19.20
2018-04-20T20:32:07.718Z,19.20
2018-04-20T20:34:38.591Z,19.20
2018-04-20T20:37:19.991Z,19.10
2018-04-20T20:39:59.399Z,19.10
2018-04-20T20:45:21.693Z,19.00
2018-04-20T20:48:01.775Z,18.90
2018-04-20T20:50:39.502Z,18.90
2018-04-20T20:53:20.618Z,18.90
2018-04-20T20:55:59.394Z,18.80
2018-04-20T20:58:46.126Z,18.80
2018-04-20T21:01:19.621Z,18.80
2018-04-20T21:03:49.482Z,18.70
2018-04-20T21:06:19.142Z,18.60
2018-04-20T21:08:50.106Z,18.50
2018-04-20T21:11:26.844Z,18.50
2018-04-20T21:13:57.874Z,18.40
2018-04-20T21:16:27.496Z,18.30
2018-04-20T21:21:36.336Z,18.10
2018-04-20T21:24:10.352Z,18.10
2018-04-20T21:26:53.683Z,18.00
2018-04-20T21:29:31.302Z,17.80
2018-04-20T21:32:07.812Z,17.80
2018-04-20T21:34:46.457Z,17.80
2018-04-20T21:37:20.982Z,17.70
2018-04-20T21:42:53.379Z,17.60
2018-04-20T21:45:30.311Z,17.50
2018-04-20T21:48:07.485Z,17.50
2018-04-20T21:50:41.601Z,17.30
2018-04-20T21:53:17.401Z,17.30
2018-04-20T22:01:14.761Z,17.00
2018-04-20T22:09:05.216Z,16.70
2018-04-20T22:11:40.642Z,16.70
2018-04-20T22:14:14.595Z,16.70
2018-04-20T22:17:02.983Z,16.70
2018-04-20T22:19:42.655Z,16.70
2018-04-20T22:25:08.042Z,16.70
2018-04-20T22:27:53.781Z,16.70
2018-04-20T22:33:19.377Z,16.20
2018-04-20T22:38:42.308Z,16.10
2018-04-20T22:44:09.939Z,16.00
2018-04-20T22:46:44.974Z,16.00
2018-04-20T22:52:10.978Z,15.90
2018-04-20T22:54:51.500Z,15.90
2018-04-20T22:57:25.332Z,15.80
2018-04-20T22:59:59.190Z,15.80
2018-04-20T23:02:41.687Z,15.90
2018-04-20T23:05:23.078Z,15.90
2018-04-20T23:08:01.327Z,15.90
2018-04-20T23:10:46.761Z,15.90
2018-04-20T23:13:25.904Z,15.90
2018-04-20T23:15:56.198Z,15.90
2018-04-20T23:18:30.749Z,15.80
2018-04-20T23:23:48.280Z,15.80
2018-04-20T23:26:22.862Z,15.70
2018-04-20T23:31:45.674Z,15.70
2018-04-20T23:34:28.054Z,15.70
2018-04-20T23:37:01.101Z,15.50
2018-04-20T23:39:36.354Z,15.50
2018-04-20T23:42:29.614Z,15.40
2018-04-20T23:45:08.694Z,15.30
2018-04-20T23:53:23.576Z,14.90
2018-04-20T23:55:58.759Z,14.90
2018-04-20T23:58:27.681Z,15.00
